sensor_id;sensor_type;location;lat;lon;timestamp;P1;durP1;ratioP1;P2;durP2;ratioP2
61112;SDS011;47184;57.998;56.184;2023-04-03T00:00:31;22.55;;;6.05;;
61112;SDS011;47184;57.998;56.184;2023-04-03T00:02:57;15.50;;;6.28;;
61112;SDS011;47184;57.998;56.184;2023-04-03T00:05:23;27.10;;;6.80;;
61112;SDS011;47184;57.998;56.184;2023-04-03T00:07:50;23.13;;;6.50;;
61112;SDS011;47184;57.998;56.184;2023-04-03T00:10:16;30.77;;;7.65;;
61112;SDS011;47184;57.998;56.184;2023-04-03T00:12:42;32.15;;;8.52;;
61112;SDS011;47184;57.998;56.184;2023-04-03T00:15:08;23.58;;;8.10;;
61112;SDS011;47184;57.998;56.184;2023-04-03T00:17:34;22.90;;;6.90;;
61112;SDS011;47184;57.998;56.184;2023-04-03T00:20:01;23.55;;;8.23;;
61112;SDS011;47184;57.998;56.184;2023-04-03T00:22:28;28.25;;;8.23;;
61112;SDS011;47184;57.998;56.184;2023-04-03T00:24:55;37.20;;;8.30;;
61112;SDS011;47184;57.998;56.184;2023-04-03T00:27:21;26.92;;;8.25;;
61112;SDS011;47184;57.998;56.184;2023-04-03T00:29:47;30.38;;;8.80;;
61112;SDS011;47184;57.998;56.184;2023-04-03T00:32:14;35.88;;;9.45;;
61112;SDS011;47184;57.998;56.184;2023-04-03T00:34:40;29.25;;;8.45;;
61112;SDS011;47184;57.998;56.184;2023-04-03T00:37:06;31.23;;;8.32;;
61112;SDS011;47184;57.998;56.184;2023-04-03T00:39:32;32.47;;;7.90;;
61112;SDS011;47184;57.998;56.184;2023-04-03T00:41:58;36.92;;;8.50;;
61112;SDS011;47184;57.998;56.184;2023-04-03T00:46:53;31.25;;;8.25;;
61112;SDS011;47184;57.998;56.184;2023-04-03T00:49:20;46.20;;;10.00;;
61112;SDS011;47184;57.998;56.184;2023-04-03T00:51:46;37.22;;;8.68;;
61112;SDS011;47184;57.998;56.184;2023-04-03T00:54:13;46.10;;;10.02;;
61112;SDS011;47184;57.998;56.184;2023-04-03T00:56:40;46.22;;;10.18;;
61112;SDS011;47184;57.998;56.184;2023-04-03T00:59:08;64.10;;;10.57;;
61112;SDS011;47184;57.998;56.184;2023-04-03T01:01:38;36.50;;;9.65;;
61112;SDS011;47184;57.998;56.184;2023-04-03T01:04:04;39.00;;;8.48;;
61112;SDS011;47184;57.998;56.184;2023-04-03T01:06:33;45.33;;;10.13;;
61112;SDS011;47184;57.998;56.184;2023-04-03T01:09:07;38.33;;;9.68;;
61112;SDS011;47184;57.998;56.184;2023-04-03T01:11:34;42.85;;;9.98;;
61112;SDS011;47184;57.998;56.184;2023-04-03T01:14:01;37.92;;;9.48;;
61112;SDS011;47184;57.998;56.184;2023-04-03T01:16:28;38.47;;;10.73;;
61112;SDS011;47184;57.998;56.184;2023-04-03T01:18:57;42.20;;;9.32;;
61112;SDS011;47184;57.998;56.184;2023-04-03T01:27:03;55.25;;;10.25;;
61112;SDS011;47184;57.998;56.184;2023-04-03T01:29:31;30.98;;;9.68;;
61112;SDS011;47184;57.998;56.184;2023-04-03T01:31:58;42.30;;;10.48;;
61112;SDS011;47184;57.998;56.184;2023-04-03T01:34:26;46.10;;;9.85;;
61112;SDS011;47184;57.998;56.184;2023-04-03T01:36:53;40.13;;;9.93;;
61112;SDS011;47184;57.998;56.184;2023-04-03T01:39:20;45.95;;;10.50;;
61112;SDS011;47184;57.998;56.184;2023-04-03T01:41:48;43.40;;;10.15;;
61112;SDS011;47184;57.998;56.184;2023-04-03T01:44:40;43.72;;;10.98;;
61112;SDS011;47184;57.998;56.184;2023-04-03T01:47:06;40.05;;;9.48;;
61112;SDS011;47184;57.998;56.184;2023-04-03T01:49:33;52.90;;;10.10;;
61112;SDS011;47184;57.998;56.184;2023-04-03T01:51:59;56.63;;;11.65;;
61112;SDS011;47184;57.998;56.184;2023-04-03T01:54:25;38.78;;;10.52;;
61112;SDS011;47184;57.998;56.184;2023-04-03T01:56:51;50.20;;;10.68;;
61112;SDS011;47184;57.998;56.184;2023-04-03T01:59:19;48.80;;;10.85;;
61112;SDS011;47184;57.998;56.184;2023-04-03T02:01:45;47.45;;;10.68;;
61112;SDS011;47184;57.998;56.184;2023-04-03T02:04:12;54.38;;;10.05;;
61112;SDS011;47184;57.998;56.184;2023-04-03T02:06:38;56.35;;;11.60;;
61112;SDS011;47184;57.998;56.184;2023-04-03T02:09:05;50.63;;;11.25;;
61112;SDS011;47184;57.998;56.184;2023-04-03T02:11:31;66.75;;;12.25;;
61112;SDS011;47184;57.998;56.184;2023-04-03T02:13:57;66.45;;;13.70;;
61112;SDS011;47184;57.998;56.184;2023-04-03T02:16:23;73.40;;;13.60;;
61112;SDS011;47184;57.998;56.184;2023-04-03T02:18:49;53.33;;;11.52;;
61112;SDS011;47184;57.998;56.184;2023-04-03T02:21:16;67.07;;;12.45;;
61112;SDS011;47184;57.998;56.184;2023-04-03T02:23:42;55.70;;;11.88;;
61112;SDS011;47184;57.998;56.184;2023-04-03T02:26:10;63.15;;;12.60;;
61112;SDS011;47184;57.998;56.184;2023-04-03T02:28:37;65.38;;;11.23;;
61112;SDS011;47184;57.998;56.184;2023-04-03T02:31:04;50.38;;;10.68;;
61112;SDS011;47184;57.998;56.184;2023-04-03T02:33:35;58.35;;;10.95;;
61112;SDS011;47184;57.998;56.184;2023-04-03T02:36:04;52.33;;;10.77;;
61112;SDS011;47184;57.998;56.184;2023-04-03T02:38:31;56.67;;;12.27;;
61112;SDS011;47184;57.998;56.184;2023-04-03T02:41:04;60.53;;;11.85;;
61112;SDS011;47184;57.998;56.184;2023-04-03T02:43:32;69.22;;;13.75;;
61112;SDS011;47184;57.998;56.184;2023-04-03T02:45:58;45.58;;;11.38;;
61112;SDS011;47184;57.998;56.184;2023-04-03T02:48:25;53.40;;;11.13;;
61112;SDS011;47184;57.998;56.184;2023-04-03T02:50:53;59.03;;;12.40;;
61112;SDS011;47184;57.998;56.184;2023-04-03T02:53:19;44.33;;;11.07;;
61112;SDS011;47184;57.998;56.184;2023-04-03T02:55:46;28.23;;;6.00;;
61112;SDS011;47184;57.998;56.184;2023-04-03T02:58:12;22.20;;;6.25;;
61112;SDS011;47184;57.998;56.184;2023-04-03T03:00:38;15.40;;;4.10;;
61112;SDS011;47184;57.998;56.184;2023-04-03T03:03:04;18.23;;;3.10;;
61112;SDS011;47184;57.998;56.184;2023-04-03T03:05:30;15.90;;;3.92;;
61112;SDS011;47184;57.998;56.184;2023-04-03T03:07:56;19.30;;;3.33;;
61112;SDS011;47184;57.998;56.184;2023-04-03T03:10:23;17.08;;;3.28;;
61112;SDS011;47184;57.998;56.184;2023-04-03T03:12:49;27.77;;;4.70;;
61112;SDS011;47184;57.998;56.184;2023-04-03T03:15:15;17.75;;;4.45;;
61112;SDS011;47184;57.998;56.184;2023-04-03T03:17:43;4.75;;;1.70;;
61112;SDS011;47184;57.998;56.184;2023-04-03T03:20:09;12.45;;;2.65;;
61112;SDS011;47184;57.998;56.184;2023-04-03T03:22:35;32.88;;;3.65;;
61112;SDS011;47184;57.998;56.184;2023-04-03T03:25:03;18.85;;;2.92;;
61112;SDS011;47184;57.998;56.184;2023-04-03T03:27:30;29.00;;;3.40;;
61112;SDS011;47184;57.998;56.184;2023-04-03T03:29:56;19.88;;;3.30;;
61112;SDS011;47184;57.998;56.184;2023-04-03T03:32:22;14.07;;;1.60;;
61112;SDS011;47184;57.998;56.184;2023-04-03T03:34:48;13.82;;;2.50;;
61112;SDS011;47184;57.998;56.184;2023-04-03T03:37:14;15.68;;;2.63;;
61112;SDS011;47184;57.998;56.184;2023-04-03T03:39:40;21.13;;;2.90;;
61112;SDS011;47184;57.998;56.184;2023-04-03T03:42:06;12.02;;;2.40;;
61112;SDS011;47184;57.998;56.184;2023-04-03T03:44:32;16.08;;;2.25;;
61112;SDS011;47184;57.998;56.184;2023-04-03T03:46:58;29.27;;;2.97;;
61112;SDS011;47184;57.998;56.184;2023-04-03T03:49:25;8.75;;;2.67;;
61112;SDS011;47184;57.998;56.184;2023-04-03T03:51:51;18.00;;;3.40;;
61112;SDS011;47184;57.998;56.184;2023-04-03T03:54:17;33.60;;;4.35;;
61112;SDS011;47184;57.998;56.184;2023-04-03T03:56:43;23.92;;;3.58;;
61112;SDS011;47184;57.998;56.184;2023-04-03T03:59:11;30.88;;;3.72;;
61112;SDS011;47184;57.998;56.184;2023-04-03T04:01:38;29.02;;;4.28;;
61112;SDS011;47184;57.998;56.184;2023-04-03T04:04:05;25.80;;;2.50;;
61112;SDS011;47184;57.998;56.184;2023-04-03T04:06:31;16.15;;;3.10;;
61112;SDS011;47184;57.998;56.184;2023-04-03T04:09:02;13.85;;;2.08;;
61112;SDS011;47184;57.998;56.184;2023-04-03T04:11:29;11.07;;;2.13;;
61112;SDS011;47184;57.998;56.184;2023-04-03T04:13:55;10.35;;;2.28;;
61112;SDS011;47184;57.998;56.184;2023-04-03T04:16:25;16.77;;;2.28;;
61112;SDS011;47184;57.998;56.184;2023-04-03T04:18:52;9.00;;;1.95;;
61112;SDS011;47184;57.998;56.184;2023-04-03T04:21:19;10.40;;;2.45;;
61112;SDS011;47184;57.998;56.184;2023-04-03T04:23:46;11.02;;;2.33;;
61112;SDS011;47184;57.998;56.184;2023-04-03T04:26:13;13.38;;;2.35;;
61112;SDS011;47184;57.998;56.184;2023-04-03T04:28:40;16.13;;;3.05;;
61112;SDS011;47184;57.998;56.184;2023-04-03T04:31:06;4.25;;;1.48;;
61112;SDS011;47184;57.998;56.184;2023-04-03T04:33:32;16.58;;;2.15;;
61112;SDS011;47184;57.998;56.184;2023-04-03T04:36:02;68.30;;;3.97;;
61112;SDS011;47184;57.998;56.184;2023-04-03T04:38:28;7.68;;;2.92;;
61112;SDS011;47184;57.998;56.184;2023-04-03T04:40:56;19.63;;;2.50;;
61112;SDS011;47184;57.998;56.184;2023-04-03T04:43:23;16.83;;;3.10;;
61112;SDS011;47184;57.998;56.184;2023-04-03T04:46:02;38.90;;;4.72;;
61112;SDS011;47184;57.998;56.184;2023-04-03T04:48:36;44.35;;;3.70;;
61112;SDS011;47184;57.998;56.184;2023-04-03T04:51:04;30.90;;;3.30;;
61112;SDS011;47184;57.998;56.184;2023-04-03T04:53:30;32.40;;;3.40;;
61112;SDS011;47184;57.998;56.184;2023-04-03T04:55:56;30.70;;;4.38;;
61112;SDS011;47184;57.998;56.184;2023-04-03T04:58:22;53.05;;;3.97;;
61112;SDS011;47184;57.998;56.184;2023-04-03T05:00:49;18.67;;;2.67;;
61112;SDS011;47184;57.998;56.184;2023-04-03T05:03:16;20.83;;;3.05;;
61112;SDS011;47184;57.998;56.184;2023-04-03T05:05:42;30.65;;;4.15;;
61112;SDS011;47184;57.998;56.184;2023-04-03T05:08:09;65.70;;;4.70;;
61112;SDS011;47184;57.998;56.184;2023-04-03T05:10:37;20.73;;;2.47;;
61112;SDS011;47184;57.998;56.184;2023-04-03T05:13:03;14.98;;;2.80;;
61112;SDS011;47184;57.998;56.184;2023-04-03T05:15:29;27.15;;;3.17;;
61112;SDS011;47184;57.998;56.184;2023-04-03T05:17:56;25.73;;;3.83;;
61112;SDS011;47184;57.998;56.184;2023-04-03T05:20:22;14.98;;;3.35;;
61112;SDS011;47184;57.998;56.184;2023-04-03T05:22:49;93.32;;;6.38;;
61112;SDS011;47184;57.998;56.184;2023-04-03T05:25:15;181.77;;;10.07;;
61112;SDS011;47184;57.998;56.184;2023-04-03T05:27:43;82.53;;;5.03;;
61112;SDS011;47184;57.998;56.184;2023-04-03T05:30:09;137.13;;;6.97;;
61112;SDS011;47184;57.998;56.184;2023-04-03T05:32:38;181.60;;;9.90;;
61112;SDS011;47184;57.998;56.184;2023-04-03T05:35:16;140.68;;;9.35;;
61112;SDS011;47184;57.998;56.184;2023-04-03T05:37:44;35.90;;;4.90;;
61112;SDS011;47184;57.998;56.184;2023-04-03T05:40:10;310.48;;;18.50;;
61112;SDS011;47184;57.998;56.184;2023-04-03T05:42:40;250.38;;;14.20;;
61112;SDS011;47184;57.998;56.184;2023-04-03T05:45:06;103.20;;;7.07;;
61112;SDS011;47184;57.998;56.184;2023-04-03T05:47:33;42.85;;;4.57;;
61112;SDS011;47184;57.998;56.184;2023-04-03T05:49:59;18.63;;;4.00;;
61112;SDS011;47184;57.998;56.184;2023-04-03T05:52:27;155.98;;;10.77;;
61112;SDS011;47184;57.998;56.184;2023-04-03T05:54:55;30.27;;;4.70;;
61112;SDS011;47184;57.998;56.184;2023-04-03T05:57:25;32.35;;;5.18;;
61112;SDS011;47184;57.998;56.184;2023-04-03T05:59:51;68.47;;;6.55;;
61112;SDS011;47184;57.998;56.184;2023-04-03T06:02:19;77.10;;;7.20;;
61112;SDS011;47184;57.998;56.184;2023-04-03T06:04:47;174.48;;;11.48;;
61112;SDS011;47184;57.998;56.184;2023-04-03T06:07:15;115.60;;;7.55;;
61112;SDS011;47184;57.998;56.184;2023-04-03T06:09:49;72.50;;;5.88;;
61112;SDS011;47184;57.998;56.184;2023-04-03T06:12:19;132.15;;;9.35;;
61112;SDS011;47184;57.998;56.184;2023-04-03T06:14:46;67.63;;;5.07;;
61112;SDS011;47184;57.998;56.184;2023-04-03T06:17:14;25.77;;;3.60;;
61112;SDS011;47184;57.998;56.184;2023-04-03T06:19:41;19.98;;;4.20;;
61112;SDS011;47184;57.998;56.184;2023-04-03T06:22:07;33.15;;;3.80;;
61112;SDS011;47184;57.998;56.184;2023-04-03T06:24:33;149.48;;;10.80;;
61112;SDS011;47184;57.998;56.184;2023-04-03T06:26:59;34.95;;;3.78;;
61112;SDS011;47184;57.998;56.184;2023-04-03T06:29:25;27.10;;;3.50;;
61112;SDS011;47184;57.998;56.184;2023-04-03T06:31:51;76.95;;;5.20;;
61112;SDS011;47184;57.998;56.184;2023-04-03T06:34:17;25.77;;;3.58;;
61112;SDS011;47184;57.998;56.184;2023-04-03T06:36:44;32.47;;;3.63;;
61112;SDS011;47184;57.998;56.184;2023-04-03T06:39:14;20.23;;;3.35;;
61112;SDS011;47184;57.998;56.184;2023-04-03T06:41:42;25.55;;;3.08;;
61112;SDS011;47184;57.998;56.184;2023-04-03T06:44:08;24.45;;;3.45;;
61112;SDS011;47184;57.998;56.184;2023-04-03T06:46:37;46.00;;;4.45;;
61112;SDS011;47184;57.998;56.184;2023-04-03T06:49:03;23.52;;;3.05;;
61112;SDS011;47184;57.998;56.184;2023-04-03T06:51:30;19.25;;;2.95;;
61112;SDS011;47184;57.998;56.184;2023-04-03T06:53:56;36.03;;;4.05;;
61112;SDS011;47184;57.998;56.184;2023-04-03T06:56:24;49.25;;;3.80;;
61112;SDS011;47184;57.998;56.184;2023-04-03T06:58:52;62.60;;;4.85;;
61112;SDS011;47184;57.998;56.184;2023-04-03T07:01:23;25.65;;;3.80;;
61112;SDS011;47184;57.998;56.184;2023-04-03T07:03:51;47.25;;;3.85;;
61112;SDS011;47184;57.998;56.184;2023-04-03T07:06:18;29.13;;;3.10;;
61112;SDS011;47184;57.998;56.184;2023-04-03T07:08:45;8.27;;;1.73;;
61112;SDS011;47184;57.998;56.184;2023-04-03T07:11:12;17.83;;;2.38;;
61112;SDS011;47184;57.998;56.184;2023-04-03T07:13:38;42.75;;;3.65;;
61112;SDS011;47184;57.998;56.184;2023-04-03T07:16:04;14.10;;;3.40;;
61112;SDS011;47184;57.998;56.184;2023-04-03T07:18:32;31.65;;;3.13;;
61112;SDS011;47184;57.998;56.184;2023-04-03T07:20:58;25.15;;;3.03;;
61112;SDS011;47184;57.998;56.184;2023-04-03T07:23:25;65.75;;;5.93;;
61112;SDS011;47184;57.998;56.184;2023-04-03T07:25:52;23.48;;;3.03;;
61112;SDS011;47184;57.998;56.184;2023-04-03T07:28:19;14.50;;;2.67;;
61112;SDS011;47184;57.998;56.184;2023-04-03T07:30:49;12.57;;;2.78;;
61112;SDS011;47184;57.998;56.184;2023-04-03T07:33:17;12.65;;;2.53;;
61112;SDS011;47184;57.998;56.184;2023-04-03T07:35:45;3.83;;;1.00;;
61112;SDS011;47184;57.998;56.184;2023-04-03T07:38:11;34.45;;;3.40;;
61112;SDS011;47184;57.998;56.184;2023-04-03T07:40:38;21.55;;;2.53;;
61112;SDS011;47184;57.998;56.184;2023-04-03T07:43:07;12.13;;;2.83;;
61112;SDS011;47184;57.998;56.184;2023-04-03T07:45:34;17.73;;;3.00;;
61112;SDS011;47184;57.998;56.184;2023-04-03T07:48:01;42.15;;;4.07;;
61112;SDS011;47184;57.998;56.184;2023-04-03T07:50:27;9.82;;;1.80;;
61112;SDS011;47184;57.998;56.184;2023-04-03T07:53:14;16.42;;;2.28;;
61112;SDS011;47184;57.998;56.184;2023-04-03T07:55:40;12.50;;;1.90;;
61112;SDS011;47184;57.998;56.184;2023-04-03T07:58:10;16.17;;;2.90;;
61112;SDS011;47184;57.998;56.184;2023-04-03T08:00:37;9.98;;;1.92;;
61112;SDS011;47184;57.998;56.184;2023-04-03T08:03:04;11.35;;;2.20;;
61112;SDS011;47184;57.998;56.184;2023-04-03T08:05:30;49.25;;;4.07;;
61112;SDS011;47184;57.998;56.184;2023-04-03T08:07:56;127.47;;;10.10;;
61112;SDS011;47184;57.998;56.184;2023-04-03T08:10:22;76.93;;;6.13;;
61112;SDS011;47184;57.998;56.184;2023-04-03T08:12:48;88.68;;;5.40;;
61112;SDS011;47184;57.998;56.184;2023-04-03T08:15:14;39.70;;;3.67;;
61112;SDS011;47184;57.998;56.184;2023-04-03T08:17:41;10.95;;;2.20;;
61112;SDS011;47184;57.998;56.184;2023-04-03T08:20:07;14.55;;;2.90;;
61112;SDS011;47184;57.998;56.184;2023-04-03T08:22:35;4.28;;;1.65;;
61112;SDS011;47184;57.998;56.184;2023-04-03T08:25:02;11.45;;;2.10;;
61112;SDS011;47184;57.998;56.184;2023-04-03T08:27:28;4.78;;;2.05;;
61112;SDS011;47184;57.998;56.184;2023-04-03T08:29:55;20.55;;;2.00;;
61112;SDS011;47184;57.998;56.184;2023-04-03T08:32:22;12.18;;;1.25;;
61112;SDS011;47184;57.998;56.184;2023-04-03T08:34:48;13.05;;;1.45;;
61112;SDS011;47184;57.998;56.184;2023-04-03T08:37:14;26.60;;;2.17;;
61112;SDS011;47184;57.998;56.184;2023-04-03T08:39:42;8.65;;;2.00;;
61112;SDS011;47184;57.998;56.184;2023-04-03T08:42:20;13.88;;;2.13;;
61112;SDS011;47184;57.998;56.184;2023-04-03T08:45:18;20.83;;;3.40;;
61112;SDS011;47184;57.998;56.184;2023-04-03T08:47:53;7.47;;;1.70;;
61112;SDS011;47184;57.998;56.184;2023-04-03T08:50:29;16.27;;;2.15;;
61112;SDS011;47184;57.998;56.184;2023-04-03T08:52:59;22.48;;;2.08;;
61112;SDS011;47184;57.998;56.184;2023-04-03T08:58:16;7.30;;;1.48;;
61112;SDS011;47184;57.998;56.184;2023-04-03T09:01:02;13.15;;;1.70;;
61112;SDS011;47184;57.998;56.184;2023-04-03T09:03:31;3.20;;;1.42;;
61112;SDS011;47184;57.998;56.184;2023-04-03T09:06:05;17.85;;;2.15;;
61112;SDS011;47184;57.998;56.184;2023-04-03T09:08:39;21.80;;;2.25;;
61112;SDS011;47184;57.998;56.184;2023-04-03T09:16:43;7.78;;;1.60;;
61112;SDS011;47184;57.998;56.184;2023-04-03T09:19:17;20.30;;;2.13;;
61112;SDS011;47184;57.998;56.184;2023-04-03T09:21:55;8.43;;;1.90;;
61112;SDS011;47184;57.998;56.184;2023-04-03T09:24:23;138.90;;;7.38;;
61112;SDS011;47184;57.998;56.184;2023-04-03T09:26:56;25.38;;;2.92;;
61112;SDS011;47184;57.998;56.184;2023-04-03T09:29:26;25.15;;;2.40;;
61112;SDS011;47184;57.998;56.184;2023-04-03T09:32:12;12.95;;;2.40;;
61112;SDS011;47184;57.998;56.184;2023-04-03T09:34:46;20.65;;;2.17;;
61112;SDS011;47184;57.998;56.184;2023-04-03T09:37:32;9.32;;;1.88;;
61112;SDS011;47184;57.998;56.184;2023-04-03T09:40:02;5.43;;;1.35;;
61112;SDS011;47184;57.998;56.184;2023-04-03T09:42:30;13.48;;;2.50;;
61112;SDS011;47184;57.998;56.184;2023-04-03T09:44:59;12.43;;;1.70;;
61112;SDS011;47184;57.998;56.184;2023-04-03T09:47:29;19.05;;;2.25;;
61112;SDS011;47184;57.998;56.184;2023-04-03T09:52:49;17.25;;;2.05;;
61112;SDS011;47184;57.998;56.184;2023-04-03T09:55:23;44.90;;;3.20;;
61112;SDS011;47184;57.998;56.184;2023-04-03T09:57:59;23.50;;;2.50;;
61112;SDS011;47184;57.998;56.184;2023-04-03T10:00:26;3.97;;;1.50;;
61112;SDS011;47184;57.998;56.184;2023-04-03T10:02:58;10.95;;;1.52;;
61112;SDS011;47184;57.998;56.184;2023-04-03T10:05:26;25.45;;;2.33;;
61112;SDS011;47184;57.998;56.184;2023-04-03T10:08:29;43.88;;;3.15;;
61112;SDS011;47184;57.998;56.184;2023-04-03T10:11:12;29.98;;;3.50;;
61112;SDS011;47184;57.998;56.184;2023-04-03T10:13:56;13.32;;;2.25;;
61112;SDS011;47184;57.998;56.184;2023-04-03T10:16:26;30.98;;;3.53;;
61112;SDS011;47184;57.998;56.184;2023-04-03T10:29:34;16.15;;;1.90;;
61112;SDS011;47184;57.998;56.184;2023-04-03T10:34:53;11.30;;;2.17;;
61112;SDS011;47184;57.998;56.184;2023-04-03T10:40:39;21.13;;;2.40;;
61112;SDS011;47184;57.998;56.184;2023-04-03T10:43:17;16.77;;;1.90;;
61112;SDS011;47184;57.998;56.184;2023-04-03T10:53:57;8.38;;;1.70;;
61112;SDS011;47184;57.998;56.184;2023-04-03T10:56:44;18.15;;;1.52;;
61112;SDS011;47184;57.998;56.184;2023-04-03T11:02:15;3.20;;;1.40;;
61112;SDS011;47184;57.998;56.184;2023-04-03T11:04:44;19.60;;;2.25;;
61112;SDS011;47184;57.998;56.184;2023-04-03T11:07:21;13.82;;;1.48;;
61112;SDS011;47184;57.998;56.184;2023-04-03T11:10:02;27.75;;;2.65;;
61112;SDS011;47184;57.998;56.184;2023-04-03T11:12:38;28.98;;;3.20;;
61112;SDS011;47184;57.998;56.184;2023-04-03T11:15:13;163.00;;;8.63;;
61112;SDS011;47184;57.998;56.184;2023-04-03T11:17:45;29.33;;;2.17;;
61112;SDS011;47184;57.998;56.184;2023-04-03T11:25:30;125.75;;;6.35;;
61112;SDS011;47184;57.998;56.184;2023-04-03T11:28:04;16.05;;;1.33;;
61112;SDS011;47184;57.998;56.184;2023-04-03T11:36:33;88.05;;;6.18;;
61112;SDS011;47184;57.998;56.184;2023-04-03T11:39:09;34.58;;;2.83;;
61112;SDS011;47184;57.998;56.184;2023-04-03T11:41:49;33.20;;;3.65;;
61112;SDS011;47184;57.998;56.184;2023-04-03T11:44:35;111.05;;;6.35;;
61112;SDS011;47184;57.998;56.184;2023-04-03T11:47:03;45.83;;;4.40;;
61112;SDS011;47184;57.998;56.184;2023-04-03T11:55:41;2.13;;;0.88;;
61112;SDS011;47184;57.998;56.184;2023-04-03T12:13:43;117.07;;;9.73;;
61112;SDS011;47184;57.998;56.184;2023-04-03T12:19:42;31.67;;;2.63;;
61112;SDS011;47184;57.998;56.184;2023-04-03T12:29:53;109.68;;;6.72;;
61112;SDS011;47184;57.998;56.184;2023-04-03T12:32:40;23.20;;;2.15;;
61112;SDS011;47184;57.998;56.184;2023-04-03T12:41:04;185.70;;;13.27;;
61112;SDS011;47184;57.998;56.184;2023-04-03T12:46:53;59.28;;;5.32;;
61112;SDS011;47184;57.998;56.184;2023-04-03T12:49:24;33.40;;;4.00;;
61112;SDS011;47184;57.998;56.184;2023-04-03T12:51:55;45.35;;;6.18;;
61112;SDS011;47184;57.998;56.184;2023-04-03T12:54:40;25.45;;;4.80;;
61112;SDS011;47184;57.998;56.184;2023-04-03T12:57:18;11.65;;;3.40;;
61112;SDS011;47184;57.998;56.184;2023-04-03T12:59:53;82.30;;;5.85;;
61112;SDS011;47184;57.998;56.184;2023-04-03T13:04:55;23.73;;;3.35;;
61112;SDS011;47184;57.998;56.184;2023-04-03T13:07:26;93.05;;;6.68;;
61112;SDS011;47184;57.998;56.184;2023-04-03T13:09:59;113.93;;;8.98;;
61112;SDS011;47184;57.998;56.184;2023-04-03T13:13:15;103.07;;;7.82;;
61112;SDS011;47184;57.998;56.184;2023-04-03T13:15:26;110.90;;;9.88;;
61112;SDS011;47184;57.998;56.184;2023-04-03T13:17:54;294.30;;;20.08;;
61112;SDS011;47184;57.998;56.184;2023-04-03T13:20:31;165.15;;;14.75;;
61112;SDS011;47184;57.998;56.184;2023-04-03T13:23:08;14.57;;;2.75;;
61112;SDS011;47184;57.998;56.184;2023-04-03T13:25:40;118.03;;;9.35;;
61112;SDS011;47184;57.998;56.184;2023-04-03T13:28:13;65.25;;;5.60;;
61112;SDS011;47184;57.998;56.184;2023-04-03T13:30:54;40.63;;;4.97;;
61112;SDS011;47184;57.998;56.184;2023-04-03T13:33:22;153.00;;;7.78;;
61112;SDS011;47184;57.998;56.184;2023-04-03T13:35:57;119.38;;;7.38;;
61112;SDS011;47184;57.998;56.184;2023-04-03T13:38:41;115.15;;;10.23;;
61112;SDS011;47184;57.998;56.184;2023-04-03T13:41:25;161.20;;;10.30;;
61112;SDS011;47184;57.998;56.184;2023-04-03T13:46:47;315.00;;;17.98;;
61112;SDS011;47184;57.998;56.184;2023-04-03T13:49:19;257.83;;;13.75;;
61112;SDS011;47184;57.998;56.184;2023-04-03T13:51:55;190.15;;;10.75;;
61112;SDS011;47184;57.998;56.184;2023-04-03T13:54:23;140.90;;;8.23;;
61112;SDS011;47184;57.998;56.184;2023-04-03T13:56:56;91.57;;;5.47;;
61112;SDS011;47184;57.998;56.184;2023-04-03T13:59:33;306.55;;;17.38;;
61112;SDS011;47184;57.998;56.184;2023-04-03T14:04:29;156.35;;;7.28;;
61112;SDS011;47184;57.998;56.184;2023-04-03T14:06:57;97.95;;;5.20;;
61112;SDS011;47184;57.998;56.184;2023-04-03T14:09:24;165.18;;;8.90;;
61112;SDS011;47184;57.998;56.184;2023-04-03T14:11:53;342.95;;;16.83;;
61112;SDS011;47184;57.998;56.184;2023-04-03T14:14:29;327.33;;;15.70;;
61112;SDS011;47184;57.998;56.184;2023-04-03T14:16:59;306.33;;;14.75;;
61112;SDS011;47184;57.998;56.184;2023-04-03T14:19:33;229.52;;;12.15;;
61112;SDS011;47184;57.998;56.184;2023-04-03T14:22:06;235.73;;;10.65;;
61112;SDS011;47184;57.998;56.184;2023-04-03T14:24:43;334.27;;;18.88;;
61112;SDS011;47184;57.998;56.184;2023-04-03T14:27:19;291.15;;;13.35;;
61112;SDS011;47184;57.998;56.184;2023-04-03T14:29:49;480.02;;;25.35;;
61112;SDS011;47184;57.998;56.184;2023-04-03T14:32:18;381.42;;;21.42;;
61112;SDS011;47184;57.998;56.184;2023-04-03T14:34:46;471.75;;;26.38;;
61112;SDS011;47184;57.998;56.184;2023-04-03T14:37:14;382.95;;;20.48;;
61112;SDS011;47184;57.998;56.184;2023-04-03T14:39:43;421.48;;;22.55;;
61112;SDS011;47184;57.998;56.184;2023-04-03T14:42:15;666.55;;;40.00;;
61112;SDS011;47184;57.998;56.184;2023-04-03T14:44:44;500.90;;;26.83;;
61112;SDS011;47184;57.998;56.184;2023-04-03T14:47:12;377.42;;;18.23;;
61112;SDS011;47184;57.998;56.184;2023-04-03T14:49:41;168.98;;;10.18;;
61112;SDS011;47184;57.998;56.184;2023-04-03T14:52:11;107.25;;;11.27;;
61112;SDS011;47184;57.998;56.184;2023-04-03T14:54:44;54.97;;;6.60;;
61112;SDS011;47184;57.998;56.184;2023-04-03T14:57:10;96.93;;;8.35;;
61112;SDS011;47184;57.998;56.184;2023-04-03T14:59:39;139.82;;;10.25;;
61112;SDS011;47184;57.998;56.184;2023-04-03T15:04:53;274.40;;;18.10;;
61112;SDS011;47184;57.998;56.184;2023-04-03T15:07:24;279.77;;;17.40;;
61112;SDS011;47184;57.998;56.184;2023-04-03T15:09:52;183.93;;;12.23;;
61112;SDS011;47184;57.998;56.184;2023-04-03T15:12:22;286.30;;;17.95;;
61112;SDS011;47184;57.998;56.184;2023-04-03T15:14:50;300.90;;;16.38;;
61112;SDS011;47184;57.998;56.184;2023-04-03T15:17:17;192.23;;;12.32;;
61112;SDS011;47184;57.998;56.184;2023-04-03T15:19:46;255.77;;;17.25;;
61112;SDS011;47184;57.998;56.184;2023-04-03T15:22:14;304.27;;;16.88;;
61112;SDS011;47184;57.998;56.184;2023-04-03T15:24:42;120.15;;;8.73;;
61112;SDS011;47184;57.998;56.184;2023-04-03T15:27:09;317.65;;;15.93;;
61112;SDS011;47184;57.998;56.184;2023-04-03T15:29:37;356.63;;;20.15;;
61112;SDS011;47184;57.998;56.184;2023-04-03T15:32:04;366.52;;;21.70;;
61112;SDS011;47184;57.998;56.184;2023-04-03T15:34:31;137.80;;;9.70;;
61112;SDS011;47184;57.998;56.184;2023-04-03T15:36:57;126.00;;;7.97;;
61112;SDS011;47184;57.998;56.184;2023-04-03T15:39:25;61.45;;;5.63;;
61112;SDS011;47184;57.998;56.184;2023-04-03T15:41:51;44.35;;;5.65;;
61112;SDS011;47184;57.998;56.184;2023-04-03T15:44:18;62.38;;;4.72;;
61112;SDS011;47184;57.998;56.184;2023-04-03T15:46:44;34.65;;;5.30;;
61112;SDS011;47184;57.998;56.184;2023-04-03T15:49:11;43.75;;;4.50;;
61112;SDS011;47184;57.998;56.184;2023-04-03T15:51:38;167.90;;;10.13;;
61112;SDS011;47184;57.998;56.184;2023-04-03T15:54:04;212.65;;;13.10;;
61112;SDS011;47184;57.998;56.184;2023-04-03T15:56:30;207.32;;;10.45;;
61112;SDS011;47184;57.998;56.184;2023-04-03T15:58:56;165.60;;;11.20;;
61112;SDS011;47184;57.998;56.184;2023-04-03T16:01:22;245.32;;;13.15;;
61112;SDS011;47184;57.998;56.184;2023-04-03T16:03:49;303.92;;;15.85;;
61112;SDS011;47184;57.998;56.184;2023-04-03T16:06:15;415.13;;;23.15;;
61112;SDS011;47184;57.998;56.184;2023-04-03T16:08:43;316.20;;;15.73;;
61112;SDS011;47184;57.998;56.184;2023-04-03T16:11:10;185.85;;;9.82;;
61112;SDS011;47184;57.998;56.184;2023-04-03T16:13:36;232.73;;;10.65;;
61112;SDS011;47184;57.998;56.184;2023-04-03T16:16:02;187.82;;;9.98;;
61112;SDS011;47184;57.998;56.184;2023-04-03T16:18:30;355.80;;;18.05;;